sensor_id;sensor_type;location;lat;lon;timestamp;pressure;altitude;pressure_sealevel;temperature;humidity
27202;BME280;14717;46.924;15.474;2023-01-31T00:00:53;97904.59;;;0.98;92.98
27202;BME280;14717;46.924;15.474;2023-01-31T00:03:19;97905.84;;;1.14;90.07
27202;BME280;14717;46.924;15.474;2023-01-31T00:05:44;97906.63;;;1.03;90.41
27202;BME280;14717;46.924;15.474;2023-01-31T00:08:09;97906.34;;;0.93;90.03
27202;BME280;14717;46.924;15.474;2023-01-31T00:10:36;97908.22;;;0.81;90.75
27202;BME280;14717;46.924;15.474;2023-01-31T00:13:02;97906.41;;;0.75;91.34
27202;BME280;14717;46.924;15.474;2023-01-31T00:15:27;97900.84;;;0.70;91.16
27202;BME280;14717;46.924;15.474;2023-01-31T00:17:53;97900.47;;;0.67;91.69
27202;BME280;14717;46.924;15.474;2023-01-31T00:20:19;97898.81;;;0.66;91.51
27202;BME280;14717;46.924;15.474;2023-01-31T00:22:44;97895.56;;;0.57;91.58
27202;BME280;14717;46.924;15.474;2023-01-31T00:25:09;97884.91;;;0.44;91.75
27202;BME280;14717;46.924;15.474;2023-01-31T00:27:35;97877.94;;;0.48;92.32
27202;BME280;14717;46.924;15.474;2023-01-31T00:30:00;97889.78;;;0.54;92.48
27202;BME280;14717;46.924;15.474;2023-01-31T00:32:25;97896.66;;;0.56;92.10
27202;BME280;14717;46.924;15.474;2023-01-31T00:34:54;97887.91;;;0.54;92.26
27202;BME280;14717;46.924;15.474;2023-01-31T00:37:20;97892.34;;;0.49;92.80
27202;BME280;14717;46.924;15.474;2023-01-31T00:39:45;97910.38;;;0.61;92.28
27202;BME280;14717;46.924;15.474;2023-01-31T00:42:10;97911.88;;;0.57;91.72
27202;BME280;14717;46.924;15.474;2023-01-31T00:44:36;97915.53;;;0.51;91.68
27202;BME280;14717;46.924;15.474;2023-01-31T00:47:01;97914.44;;;0.52;91.87
27202;BME280;14717;46.924;15.474;2023-01-31T00:49:27;97922.94;;;0.44;91.57
27202;BME280;14717;46.924;15.474;2023-01-31T00:51:52;97926.69;;;0.43;91.97
27202;BME280;14717;46.924;15.474;2023-01-31T00:54:17;97940.22;;;0.32;91.66
27202;BME280;14717;46.924;15.474;2023-01-31T00:56:43;97951.16;;;0.26;92.15
27202;BME280;14717;46.924;15.474;2023-01-31T00:59:09;97966.63;;;0.25;92.72
27202;BME280;14717;46.924;15.474;2023-01-31T01:01:35;97958.03;;;0.28;92.89
27202;BME280;14717;46.924;15.474;2023-01-31T01:04:01;97964.88;;;0.31;93.18
27202;BME280;14717;46.924;15.474;2023-01-31T01:06:27;97978.91;;;0.28;92.88
27202;BME280;14717;46.924;15.474;2023-01-31T01:08:54;97979.97;;;0.27;93.75
27202;BME280;14717;46.924;15.474;2023-01-31T01:11:22;97966.25;;;0.22;93.57
27202;BME280;14717;46.924;15.474;2023-01-31T01:13:48;97975.22;;;0.22;94.39
27202;BME280;14717;46.924;15.474;2023-01-31T01:16:22;97973.69;;;0.26;94.50
27202;BME280;14717;46.924;15.474;2023-01-31T01:18:48;97963.09;;;0.25;93.58
27202;BME280;14717;46.924;15.474;2023-01-31T01:21:19;97965.47;;;0.33;93.44
27202;BME280;14717;46.924;15.474;2023-01-31T01:23:46;97957.41;;;0.26;93.29
27202;BME280;14717;46.924;15.474;2023-01-31T01:26:23;97964.44;;;0.34;93.87
27202;BME280;14717;46.924;15.474;2023-01-31T01:28:49;97970.59;;;0.41;93.59
27202;BME280;14717;46.924;15.474;2023-01-31T01:31:16;97964.72;;;0.43;93.14
27202;BME280;14717;46.924;15.474;2023-01-31T01:33:42;97960.81;;;0.40;91.93
27202;BME280;14717;46.924;15.474;2023-01-31T01:36:09;97963.25;;;0.30;92.30
27202;BME280;14717;46.924;15.474;2023-01-31T01:38:38;97963.75;;;0.38;92.68
27202;BME280;14717;46.924;15.474;2023-01-31T01:41:05;97949.75;;;0.52;92.90
27202;BME280;14717;46.924;15.474;2023-01-31T01:43:47;97961.56;;;0.64;92.27
27202;BME280;14717;46.924;15.474;2023-01-31T01:46:17;97977.38;;;0.67;92.21
27202;BME280;14717;46.924;15.474;2023-01-31T01:48:48;97986.47;;;0.61;91.28
27202;BME280;14717;46.924;15.474;2023-01-31T01:51:15;97977.09;;;0.57;91.58
27202;BME280;14717;46.924;15.474;2023-01-31T01:53:44;97977.56;;;0.54;92.05
27202;BME280;14717;46.924;15.474;2023-01-31T01:56:18;97980.94;;;0.50;91.15
27202;BME280;14717;46.924;15.474;2023-01-31T01:58:50;97968.50;;;0.42;91.32
27202;BME280;14717;46.924;15.474;2023-01-31T02:01:18;97976.19;;;0.45;91.60
27202;BME280;14717;46.924;15.474;2023-01-31T02:03:44;97976.50;;;0.38;91.69
27202;BME280;14717;46.924;15.474;2023-01-31T02:06:11;97983.16;;;0.42;91.66
27202;BME280;14717;46.924;15.474;2023-01-31T02:08:39;97968.56;;;0.36;91.45
27202;BME280;14717;46.924;15.474;2023-01-31T02:11:26;97971.22;;;0.42;92.28
27202;BME280;14717;46.924;15.474;2023-01-31T02:13:56;97957.63;;;0.42;91.73
27202;BME280;14717;46.924;15.474;2023-01-31T02:16:24;97958.09;;;0.40;92.50
27202;BME280;14717;46.924;15.474;2023-01-31T02:18:49;97964.50;;;0.27;92.04
27202;BME280;14717;46.924;15.474;2023-01-31T02:27:36;97979.97;;;0.09;92.33
27202;BME280;14717;46.924;15.474;2023-01-31T02:38:29;97979.66;;;0.17;92.26
27202;BME280;14717;46.924;15.474;2023-01-31T02:41:08;97979.13;;;0.26;92.11
27202;BME280;14717;46.924;15.474;2023-01-31T02:43:52;97983.88;;;0.31;92.03
27202;BME280;14717;46.924;15.474;2023-01-31T02:46:54;97989.22;;;0.19;92.50
27202;BME280;14717;46.924;15.474;2023-01-31T02:54:43;98001.34;;;-0.01;92.49
27202;BME280;14717;46.924;15.474;2023-01-31T02:57:31;97992.34;;;0.05;92.63
27202;BME280;14717;46.924;15.474;2023-01-31T02:59:58;97996.47;;;0.07;92.53
27202;BME280;14717;46.924;15.474;2023-01-31T03:02:24;97994.47;;;-0.03;92.36
27202;BME280;14717;46.924;15.474;2023-01-31T03:04:49;97991.09;;;0.01;93.19
27202;BME280;14717;46.924;15.474;2023-01-31T03:07:23;98000.75;;;-0.03;92.59
27202;BME280;14717;46.924;15.474;2023-01-31T03:10:15;98008.91;;;-0.03;92.74
27202;BME280;14717;46.924;15.474;2023-01-31T03:13:01;98000.06;;;-0.16;92.80
27202;BME280;14717;46.924;15.474;2023-01-31T03:21:37;98031.00;;;-0.24;92.63
27202;BME280;14717;46.924;15.474;2023-01-31T03:24:04;98035.56;;;-0.18;93.36
27202;BME280;14717;46.924;15.474;2023-01-31T03:26:32;98032.19;;;-0.20;93.05
27202;BME280;14717;46.924;15.474;2023-01-31T03:29:00;98024.06;;;-0.20;93.46
27202;BME280;14717;46.924;15.474;2023-01-31T03:31:54;98035.50;;;-0.11;93.11
27202;BME280;14717;46.924;15.474;2023-01-31T03:34:20;98039.63;;;-0.33;92.33
27202;BME280;14717;46.924;15.474;2023-01-31T03:36:56;98045.34;;;-0.41;93.02
27202;BME280;14717;46.924;15.474;2023-01-31T03:39:43;98055.50;;;-0.37;92.92
27202;BME280;14717;46.924;15.474;2023-01-31T03:45:17;98059.34;;;-0.44;92.21
27202;BME280;14717;46.924;15.474;2023-01-31T03:47:37;98060.34;;;-0.39;92.96
27202;BME280;14717;46.924;15.474;2023-01-31T03:50:11;98064.28;;;-0.65;92.73
27202;BME280;14717;46.924;15.474;2023-01-31T03:52:43;98071.81;;;-0.67;93.42
27202;BME280;14717;46.924;15.474;2023-01-31T03:55:29;98067.78;;;-0.58;94.25
27202;BME280;14717;46.924;15.474;2023-01-31T03:57:57;98051.06;;;-0.55;93.94
27202;BME280;14717;46.924;15.474;2023-01-31T04:00:24;98055.44;;;-0.54;93.53
27202;BME280;14717;46.924;15.474;2023-01-31T04:02:57;98051.50;;;-0.58;93.23
27202;BME280;14717;46.924;15.474;2023-01-31T04:05:24;98050.91;;;-0.60;93.61
27202;BME280;14717;46.924;15.474;2023-01-31T04:07:55;98056.16;;;-0.65;93.33
27202;BME280;14717;46.924;15.474;2023-01-31T04:10:21;98058.06;;;-0.72;93.60
27202;BME280;14717;46.924;15.474;2023-01-31T04:12:47;98048.69;;;-0.76;94.11
27202;BME280;14717;46.924;15.474;2023-01-31T04:15:13;98058.72;;;-0.77;94.32
27202;BME280;14717;46.924;15.474;2023-01-31T04:17:38;98050.97;;;-0.73;93.31
27202;BME280;14717;46.924;15.474;2023-01-31T04:20:04;98050.94;;;-0.67;93.97
27202;BME280;14717;46.924;15.474;2023-01-31T04:22:30;98049.75;;;-0.77;92.95
27202;BME280;14717;46.924;15.474;2023-01-31T04:24:55;98063.66;;;-1.04;93.41
27202;BME280;14717;46.924;15.474;2023-01-31T04:27:21;98049.03;;;-0.97;94.58
27202;BME280;14717;46.924;15.474;2023-01-31T04:29:46;98064.41;;;-0.91;94.20
27202;BME280;14717;46.924;15.474;2023-01-31T04:32:11;98059.81;;;-0.90;93.89
27202;BME280;14717;46.924;15.474;2023-01-31T04:34:37;98062.53;;;-0.90;93.74
27202;BME280;14717;46.924;15.474;2023-01-31T04:37:03;98064.09;;;-1.14;93.42
27202;BME280;14717;46.924;15.474;2023-01-31T04:39:28;98072.88;;;-1.12;95.27
27202;BME280;14717;46.924;15.474;2023-01-31T04:41:54;98064.47;;;-1.04;94.86
27202;BME280;14717;46.924;15.474;2023-01-31T04:44:19;98060.31;;;-1.00;94.72
27202;BME280;14717;46.924;15.474;2023-01-31T04:46:44;98056.13;;;-1.02;94.38
27202;BME280;14717;46.924;15.474;2023-01-31T04:49:11;98057.63;;;-1.06;94.77
27202;BME280;14717;46.924;15.474;2023-01-31T04:51:37;98051.69;;;-1.27;95.29
27202;BME280;14717;46.924;15.474;2023-01-31T04:54:02;98054.56;;;-1.23;95.74
27202;BME280;14717;46.924;15.474;2023-01-31T04:56:28;98049.94;;;-1.16;95.63
27202;BME280;14717;46.924;15.474;2023-01-31T04:58:53;98049.09;;;-1.10;95.28
27202;BME280;14717;46.924;15.474;2023-01-31T05:01:18;98053.28;;;-1.20;95.50
27202;BME280;14717;46.924;15.474;2023-01-31T05:03:44;98060.44;;;-1.32;97.03
27202;BME280;14717;46.924;15.474;2023-01-31T05:06:09;98069.81;;;-1.28;97.90
27202;BME280;14717;46.924;15.474;2023-01-31T05:08:34;98067.28;;;-1.23;97.27
27202;BME280;14717;46.924;15.474;2023-01-31T05:11:01;98070.81;;;-1.16;97.22
27202;BME280;14717;46.924;15.474;2023-01-31T05:13:27;98069.56;;;-1.20;95.32
27202;BME280;14717;46.924;15.474;2023-01-31T05:15:54;98067.94;;;-1.27;96.22
27202;BME280;14717;46.924;15.474;2023-01-31T05:18:22;98075.03;;;-1.27;96.67
27202;BME280;14717;46.924;15.474;2023-01-31T05:20:48;98074.56;;;-1.24;96.75
27202;BME280;14717;46.924;15.474;2023-01-31T05:23:15;98099.19;;;-1.31;95.24
27202;BME280;14717;46.924;15.474;2023-01-31T05:25:41;98094.59;;;-1.25;95.44
27202;BME280;14717;46.924;15.474;2023-01-31T05:28:06;98080.22;;;-1.31;96.02
27202;BME280;14717;46.924;15.474;2023-01-31T05:30:32;98081.28;;;-1.32;95.73
27202;BME280;14717;46.924;15.474;2023-01-31T05:32:57;98081.75;;;-1.48;96.45
27202;BME280;14717;46.924;15.474;2023-01-31T05:35:23;98084.66;;;-1.56;97.01
27202;BME280;14717;46.924;15.474;2023-01-31T05:37:48;98086.34;;;-1.49;97.10
27202;BME280;14717;46.924;15.474;2023-01-31T05:40:15;98088.63;;;-1.52;95.99
27202;BME280;14717;46.924;15.474;2023-01-31T05:42:41;98090.53;;;-1.53;96.47
27202;BME280;14717;46.924;15.474;2023-01-31T05:45:08;98082.63;;;-1.67;97.06
27202;BME280;14717;46.924;15.474;2023-01-31T05:47:34;98093.47;;;-1.73;97.80
27202;BME280;14717;46.924;15.474;2023-01-31T05:49:59;98079.31;;;-1.82;98.08
27202;BME280;14717;46.924;15.474;2023-01-31T05:52:25;98089.72;;;-1.72;99.26
27202;BME280;14717;46.924;15.474;2023-01-31T05:54:51;98087.63;;;-1.64;97.85
27202;BME280;14717;46.924;15.474;2023-01-31T05:57:16;98073.84;;;-1.56;96.96
27202;BME280;14717;46.924;15.474;2023-01-31T05:59:41;98066.81;;;-1.70;96.80
27202;BME280;14717;46.924;15.474;2023-01-31T06:02:07;98069.31;;;-1.75;96.60
27202;BME280;14717;46.924;15.474;2023-01-31T06:04:38;98078.91;;;-1.72;97.06
27202;BME280;14717;46.924;15.474;2023-01-31T06:07:03;98083.47;;;-1.86;97.88
27202;BME280;14717;46.924;15.474;2023-01-31T06:09:29;98087.22;;;-1.68;100.00
27202;BME280;14717;46.924;15.474;2023-01-31T06:11:54;98075.94;;;-1.65;99.69
27202;BME280;14717;46.924;15.474;2023-01-31T06:14:20;98086.38;;;-1.68;98.75
27202;BME280;14717;46.924;15.474;2023-01-31T06:16:45;98088.03;;;-1.67;99.84
27202;BME280;14717;46.924;15.474;2023-01-31T06:19:11;98097.00;;;-1.73;99.13
27202;BME280;14717;46.924;15.474;2023-01-31T06:21:36;98094.50;;;-1.68;98.64
27202;BME280;14717;46.924;15.474;2023-01-31T06:24:02;98096.38;;;-1.62;98.16
27202;BME280;14717;46.924;15.474;2023-01-31T06:26:27;98097.59;;;-1.58;98.04
27202;BME280;14717;46.924;15.474;2023-01-31T06:28:52;98099.47;;;-1.59;97.74
27202;BME280;14717;46.924;15.474;2023-01-31T06:31:18;98101.38;;;-1.66;97.37
27202;BME280;14717;46.924;15.474;2023-01-31T06:33:43;98105.31;;;-1.62;97.47
27202;BME280;14717;46.924;15.474;2023-01-31T06:36:09;98109.50;;;-1.78;97.32
27202;BME280;14717;46.924;15.474;2023-01-31T06:38:34;98115.13;;;-1.73;97.12
27202;BME280;14717;46.924;15.474;2023-01-31T06:40:59;98114.72;;;-1.70;96.73
27202;BME280;14717;46.924;15.474;2023-01-31T06:43:25;98121.56;;;-1.68;97.90
27202;BME280;14717;46.924;15.474;2023-01-31T06:45:50;98123.03;;;-1.66;97.90
27202;BME280;14717;46.924;15.474;2023-01-31T06:48:16;98127.19;;;-1.63;97.19
27202;BME280;14717;46.924;15.474;2023-01-31T06:50:42;98134.88;;;-1.60;98.32
27202;BME280;14717;46.924;15.474;2023-01-31T06:53:08;98133.66;;;-1.58;98.22
27202;BME280;14717;46.924;15.474;2023-01-31T06:55:34;98137.59;;;-1.60;97.75
27202;BME280;14717;46.924;15.474;2023-01-31T06:57:59;98139.25;;;-1.59;97.99
27202;BME280;14717;46.924;15.474;2023-01-31T07:00:24;98143.81;;;-1.53;98.14
27202;BME280;14717;46.924;15.474;2023-01-31T07:02:51;98147.13;;;-1.51;97.89
27202;BME280;14717;46.924;15.474;2023-01-31T07:05:17;98153.41;;;-1.57;98.79
27202;BME280;14717;46.924;15.474;2023-01-31T07:07:43;98154.66;;;-1.53;99.17
27202;BME280;14717;46.924;15.474;2023-01-31T07:10:09;98144.22;;;-1.43;98.30
27202;BME280;14717;46.924;15.474;2023-01-31T07:12:34;98150.03;;;-1.33;98.80
27202;BME280;14717;46.924;15.474;2023-01-31T07:15:00;98153.78;;;-1.28;98.24
27202;BME280;14717;46.924;15.474;2023-01-31T07:17:25;98156.88;;;-1.18;99.14
27202;BME280;14717;46.924;15.474;2023-01-31T07:19:51;98152.09;;;-1.23;98.79
27202;BME280;14717;46.924;15.474;2023-01-31T07:22:16;98147.69;;;-1.11;98.72
27202;BME280;14717;46.924;15.474;2023-01-31T07:24:42;98138.47;;;-0.97;100.00
27202;BME280;14717;46.924;15.474;2023-01-31T07:27:07;98150.91;;;-0.83;99.94
27202;BME280;14717;46.924;15.474;2023-01-31T07:29:33;98153.59;;;-0.77;99.08
27202;BME280;14717;46.924;15.474;2023-01-31T07:31:58;98152.28;;;-0.61;99.97
27202;BME280;14717;46.924;15.474;2023-01-31T07:34:24;98154.31;;;-0.50;99.51
27202;BME280;14717;46.924;15.474;2023-01-31T07:36:50;98145.81;;;-0.30;99.51
27202;BME280;14717;46.924;15.474;2023-01-31T07:39:15;98150.31;;;-0.11;99.01
27202;BME280;14717;46.924;15.474;2023-01-31T07:41:40;98154.91;;;0.13;97.48
27202;BME280;14717;46.924;15.474;2023-01-31T07:44:06;98160.91;;;0.21;97.19
27202;BME280;14717;46.924;15.474;2023-01-31T07:46:35;98169.16;;;0.33;96.67
27202;BME280;14717;46.924;15.474;2023-01-31T07:49:00;98165.25;;;0.53;95.78
27202;BME280;14717;46.924;15.474;2023-01-31T07:51:26;98168.00;;;0.71;95.10
27202;BME280;14717;46.924;15.474;2023-01-31T07:53:51;98168.66;;;0.90;94.40
27202;BME280;14717;46.924;15.474;2023-01-31T07:56:19;98152.31;;;1.08;93.84
27202;BME280;14717;46.924;15.474;2023-01-31T07:58:46;98157.31;;;1.29;92.38
27202;BME280;14717;46.924;15.474;2023-01-31T08:01:17;98164.16;;;1.49;92.72
27202;BME280;14717;46.924;15.474;2023-01-31T08:04:03;98171.69;;;1.65;92.98
27202;BME280;14717;46.924;15.474;2023-01-31T08:06:29;98167.28;;;1.82;91.71
27202;BME280;14717;46.924;15.474;2023-01-31T08:08:56;98164.03;;;2.03;89.51
27202;BME280;14717;46.924;15.474;2023-01-31T08:11:22;98168.22;;;2.16;89.03
27202;BME280;14717;46.924;15.474;2023-01-31T08:13:47;98183.91;;;2.32;87.97
27202;BME280;14717;46.924;15.474;2023-01-31T08:16:13;98184.44;;;2.52;87.24
27202;BME280;14717;46.924;15.474;2023-01-31T08:18:38;98170.69;;;2.70;85.39
27202;BME280;14717;46.924;15.474;2023-01-31T08:21:04;98183.16;;;2.89;86.50
27202;BME280;14717;46.924;15.474;2023-01-31T08:23:30;98183.03;;;3.06;84.33
27202;BME280;14717;46.924;15.474;2023-01-31T08:26:01;98186.81;;;3.28;84.03
27202;BME280;14717;46.924;15.474;2023-01-31T08:28:27;98184.75;;;3.46;83.61
27202;BME280;14717;46.924;15.474;2023-01-31T08:30:53;98181.16;;;3.69;82.34
27202;BME280;14717;46.924;15.474;2023-01-31T08:33:18;98182.00;;;3.97;81.39
27202;BME280;14717;46.924;15.474;2023-01-31T08:35:44;98178.44;;;4.24;79.32
27202;BME280;14717;46.924;15.474;2023-01-31T08:38:09;98196.88;;;4.61;77.64
27202;BME280;14717;46.924;15.474;2023-01-31T08:40:35;98199.16;;;4.80;73.97
27202;BME280;14717;46.924;15.474;2023-01-31T08:43:00;98190.38;;;4.95;74.97
27202;BME280;14717;46.924;15.474;2023-01-31T08:45:29;98193.66;;;5.13;72.52
27202;BME280;14717;46.924;15.474;2023-01-31T08:47:59;98200.00;;;5.35;72.92
27202;BME280;14717;46.924;15.474;2023-01-31T08:50:28;98204.72;;;5.55;68.06
27202;BME280;14717;46.924;15.474;2023-01-31T08:53:00;98197.63;;;5.76;65.58
27202;BME280;14717;46.924;15.474;2023-01-31T08:55:26;98202.47;;;5.90;66.90
27202;BME280;14717;46.924;15.474;2023-01-31T08:57:52;98197.16;;;6.05;65.25
27202;BME280;14717;46.924;15.474;2023-01-31T09:00:19;98208.63;;;6.23;60.42
27202;BME280;14717;46.924;15.474;2023-01-31T09:02:49;98206.25;;;6.32;60.54
27202;BME280;14717;46.924;15.474;2023-01-31T09:05:15;98206.94;;;6.43;60.21
27202;BME280;14717;46.924;15.474;2023-01-31T09:07:40;98206.47;;;6.51;60.44
27202;BME280;14717;46.924;15.474;2023-01-31T09:10:06;98217.03;;;6.64;58.25
27202;BME280;14717;46.924;15.474;2023-01-31T09:12:32;98219.47;;;6.87;59.28
27202;BME280;14717;46.924;15.474;2023-01-31T09:14:58;98220.66;;;7.01;60.16
27202;BME280;14717;46.924;15.474;2023-01-31T09:17:23;98220.75;;;7.11;55.47
27202;BME280;14717;46.924;15.474;2023-01-31T09:19:48;98229.53;;;7.08;53.86
27202;BME280;14717;46.924;15.474;2023-01-31T09:22:14;98236.69;;;7.09;55.79
27202;BME280;14717;46.924;15.474;2023-01-31T09:24:40;98220.75;;;7.11;55.09
27202;BME280;14717;46.924;15.474;2023-01-31T09:27:05;98227.44;;;7.24;54.60
27202;BME280;14717;46.924;15.474;2023-01-31T09:29:30;98228.44;;;7.45;55.02
27202;BME280;14717;46.924;15.474;2023-01-31T09:31:56;98226.91;;;7.63;53.49
27202;BME280;14717;46.924;15.474;2023-01-31T09:34:21;98226.75;;;7.80;53.66
27202;BME280;14717;46.924;15.474;2023-01-31T09:36:47;98219.09;;;7.87;51.75
27202;BME280;14717;46.924;15.474;2023-01-31T09:39:12;98223.03;;;8.01;51.74
27202;BME280;14717;46.924;15.474;2023-01-31T09:41:45;98220.00;;;8.02;49.57
27202;BME280;14717;46.924;15.474;2023-01-31T09:44:19;98220.94;;;8.22;48.79
27202;BME280;14717;46.924;15.474;2023-01-31T09:49:56;98232.28;;;8.36;48.97
27202;BME280;14717;46.924;15.474;2023-01-31T09:52:23;98233.13;;;8.46;48.69
27202;BME280;14717;46.924;15.474;2023-01-31T09:54:51;98240.06;;;8.58;46.12
27202;BME280;14717;46.924;15.474;2023-01-31T09:57:21;98237.53;;;8.42;50.79
27202;BME280;14717;46.924;15.474;2023-01-31T10:00:45;98242.44;;;7.79;56.84
27202;BME280;14717;46.924;15.474;2023-01-31T10:10:40;98237.47;;;8.27;55.19
27202;BME280;14717;46.924;15.474;2023-01-31T10:13:30;98231.34;;;8.10;52.19
27202;BME280;14717;46.924;15.474;2023-01-31T10:19:00;98237.81;;;8.41;53.46
27202;BME280;14717;46.924;15.474;2023-01-31T10:21:33;98224.91;;;8.61;53.29
27202;BME280;14717;46.924;15.474;2023-01-31T10:24:08;98232.91;;;8.62;52.83
27202;BME280;14717;46.924;15.474;2023-01-31T10:26:38;98237.53;;;8.42;50.64
27202;BME280;14717;46.924;15.474;2023-01-31T10:29:22;98235.38;;;8.54;53.09
27202;BME280;14717;46.924;15.474;2023-01-31T10:32:04;98229.28;;;8.47;50.86
27202;BME280;14717;46.924;15.474;2023-01-31T10:34:41;98232.03;;;8.42;51.49
27202;BME280;14717;46.924;15.474;2023-01-31T10:39:49;98233.31;;;8.20;51.45
27202;BME280;14717;46.924;15.474;2023-01-31T10:42:36;98232.56;;;8.39;50.24
27202;BME280;14717;46.924;15.474;2023-01-31T10:45:09;98226.03;;;8.55;48.32
27202;BME280;14717;46.924;15.474;2023-01-31T10:50:23;98216.28;;;8.33;50.70
27202;BME280;14717;46.924;15.474;2023-01-31T10:56:10;98213.91;;;8.61;49.77
27202;BME280;14717;46.924;15.474;2023-01-31T10:58:40;98211.19;;;8.76;47.65
27202;BME280;14717;46.924;15.474;2023-01-31T11:01:06;98212.59;;;9.08;46.23
27202;BME280;14717;46.924;15.474;2023-01-31T11:03:36;98209.84;;;9.28;45.29
27202;BME280;14717;46.924;15.474;2023-01-31T11:06:01;98206.81;;;9.19;44.41
27202;BME280;14717;46.924;15.474;2023-01-31T11:08:50;98204.06;;;9.14;45.07
27202;BME280;14717;46.924;15.474;2023-01-31T11:11:19;98194.13;;;9.23;44.43
27202;BME280;14717;46.924;15.474;2023-01-31T11:13:58;98192.78;;;9.21;45.74
27202;BME280;14717;46.924;15.474;2023-01-31T11:16:46;98193.31;;;9.03;47.18
27202;BME280;14717;46.924;15.474;2023-01-31T11:19:25;98205.16;;;9.18;43.71
27202;BME280;14717;46.924;15.474;2023-01-31T11:21:53;98191.09;;;8.85;42.06
27202;BME280;14717;46.924;15.474;2023-01-31T11:24:23;98182.81;;;8.85;43.49
27202;BME280;14717;46.924;15.474;2023-01-31T11:27:04;98185.88;;;9.08;44.40
27202;BME280;14717;46.924;15.474;2023-01-31T11:29:45;98179.81;;;9.16;42.83
27202;BME280;14717;46.924;15.474;2023-01-31T11:32:18;98176.78;;;9.23;42.12
27202;BME280;14717;46.924;15.474;2023-01-31T11:37:54;98174.22;;;9.66;40.80
27202;BME280;14717;46.924;15.474;2023-01-31T11:40:21;98163.50;;;9.54;42.00
27202;BME280;14717;46.924;15.474;2023-01-31T11:42:56;98160.75;;;9.44;43.25
27202;BME280;14717;46.924;15.474;2023-01-31T11:45:28;98172.31;;;9.66;40.84
27202;BME280;14717;46.924;15.474;2023-01-31T11:47:57;98169.28;;;9.48;40.88
27202;BME280;14717;46.924;15.474;2023-01-31T11:50:30;98167.16;;;9.10;40.76
27202;BME280;14717;46.924;15.474;2023-01-31T11:52:58;98169.59;;;9.27;42.04
27202;BME280;14717;46.924;15.474;2023-01-31T11:55:25;98173.19;;;9.32;42.28
27202;BME280;14717;46.924;15.474;2023-01-31T11:57:58;98171.53;;;9.16;40.87
27202;BME280;14717;46.924;15.474;2023-01-31T12:00:27;98162.16;;;9.42;41.93
27202;BME280;14717;46.924;15.474;2023-01-31T12:05:33;98172.06;;;9.28;41.98
27202;BME280;14717;46.924;15.474;2023-01-31T12:07:59;98166.28;;;9.25;40.33
27202;BME280;14717;46.924;15.474;2023-01-31T12:10:25;98173.22;;;9.17;39.67
27202;BME280;14717;46.924;15.474;2023-01-31T12:12:52;98159.16;;;9.09;39.94
27202;BME280;14717;46.924;15.474;2023-01-31T12:15:17;98160.50;;;9.31;40.57
27202;BME280;14717;46.924;15.474;2023-01-31T12:17:45;98164.63;;;9.53;41.59
27202;BME280;14717;46.924;15.474;2023-01-31T12:20:39;98151.88;;;9.67;40.45
27202;BME280;14717;46.924;15.474;2023-01-31T12:26:33;98153.88;;;9.52;40.19
27202;BME280;14717;46.924;15.474;2023-01-31T12:29:35;98153.38;;;9.25;38.37
27202;BME280;14717;46.924;15.474;2023-01-31T12:32:16;98149.50;;;9.21;39.12
27202;BME280;14717;46.924;15.474;2023-01-31T12:35:18;98150.00;;;9.33;38.98
27202;BME280;14717;46.924;15.474;2023-01-31T12:38:34;98149.47;;;9.31;40.27
27202;BME280;14717;46.924;15.474;2023-01-31T12:41:11;98156.13;;;9.25;39.99
27202;BME280;14717;46.924;15.474;2023-01-31T12:44:05;98160.50;;;9.41;40.51
27202;BME280;14717;46.924;15.474;2023-01-31T12:50:09;98159.84;;;9.83;39.83
27202;BME280;14717;46.924;15.474;2023-01-31T12:55:17;98147.72;;;9.84;39.32
27202;BME280;14717;46.924;15.474;2023-01-31T13:00:15;98145.88;;;9.45;38.84
27202;BME280;14717;46.924;15.474;2023-01-31T13:08:32;98141.47;;;9.30;38.48
27202;BME280;14717;46.924;15.474;2023-01-31T13:11:11;98147.81;;;9.50;39.98
27202;BME280;14717;46.924;15.474;2023-01-31T13:13:44;98142.59;;;9.29;38.45
27202;BME280;14717;46.924;15.474;2023-01-31T13:18:37;98147.84;;;9.25;39.50
27202;BME280;14717;46.924;15.474;2023-01-31T13:21:06;98143.41;;;9.29;38.57
27202;BME280;14717;46.924;15.474;2023-01-31T13:23:35;98142.00;;;9.36;37.70
27202;BME280;14717;46.924;15.474;2023-01-31T13:26:22;98134.88;;;9.26;38.02
27202;BME280;14717;46.924;15.474;2023-01-31T13:28:56;98131.81;;;9.47;39.56
27202;BME280;14717;46.924;15.474;2023-01-31T13:31:36;98134.03;;;9.45;39.44
27202;BME280;14717;46.924;15.474;2023-01-31T13:34:12;98131.53;;;9.48;38.58
27202;BME280;14717;46.924;15.474;2023-01-31T13:36:59;98139.03;;;8.98;37.62
27202;BME280;14717;46.924;15.474;2023-01-31T13:39:31;98136.00;;;8.75;38.64
27202;BME280;14717;46.924;15.474;2023-01-31T13:41:58;98141.50;;;8.70;39.22
27202;BME280;14717;46.924;15.474;2023-01-31T13:44:24;98137.66;;;8.61;38.66
27202;BME280;14717;46.924;15.474;2023-01-31T13:46:55;98128.25;;;8.62;38.61
27202;BME280;14717;46.924;15.474;2023-01-31T13:49:35;98125.78;;;8.61;38.22
27202;BME280;14717;46.924;15.474;2023-01-31T13:52:28;98129.94;;;8.68;39.26
27202;BME280;14717;46.924;15.474;2023-01-31T13:55:00;98121.69;;;8.78;39.18
27202;BME280;14717;46.924;15.474;2023-01-31T13:57:33;98124.69;;;8.96;37.91
27202;BME280;14717;46.924;15.474;2023-01-31T14:00:08;98121.41;;;8.94;37.38
27202;BME280;14717;46.924;15.474;2023-01-31T14:02:34;98128.59;;;8.95;36.85
27202;BME280;14717;46.924;15.474;2023-01-31T14:05:06;98119.72;;;9.03;37.67
27202;BME280;14717;46.924;15.474;2023-01-31T14:10:50;98118.31;;;9.40;36.85
27202;BME280;14717;46.924;15.474;2023-01-31T14:13:24;98110.06;;;9.31;35.75
27202;BME280;14717;46.924;15.474;2023-01-31T14:15:51;98113.09;;;9.29;35.30
27202;BME280;14717;46.924;15.474;2023-01-31T14:24:02;98129.84;;;9.52;37.39
27202;BME280;14717;46.924;15.474;2023-01-31T14:28:56;98130.13;;;9.51;36.79
27202;BME280;14717;46.924;15.474;2023-01-31T14:31:22;98124.03;;;9.69;37.67
27202;BME280;14717;46.924;15.474;2023-01-31T14:33:48;98126.78;;;9.64;37.11
27202;BME280;14717;46.924;15.474;2023-01-31T14:36:41;98132.31;;;9.59;38.38
27202;BME280;14717;46.924;15.474;2023-01-31T14:45:32;98129.09;;;9.17;38.48